createdAt,value
2023-02-08T00:00:22.473Z,-7.62
2023-02-08T00:03:28.303Z,-7.61
2023-02-08T00:06:40.106Z,-7.60
2023-02-08T00:09:42.674Z,-7.58
2023-02-08T00:12:48.158Z,-7.58
2023-02-08T00:15:53.290Z,-7.59
2023-02-08T00:18:59.169Z,-7.59
2023-02-08T00:22:02.942Z,-7.60
2023-02-08T00:25:08.921Z,-7.62
2023-02-08T00:28:16.896Z,-7.64
2023-02-08T00:31:39.151Z,-7.65
2023-02-08T00:34:41.949Z,-7.67
2023-02-08T00:37:45.846Z,-7.68
2023-02-08T00:40:53.341Z,-7.69
2023-02-08T00:43:58.856Z,-7.71
2023-02-08T00:47:03.976Z,-7.73
2023-02-08T00:50:10.829Z,-7.72
2023-02-08T00:53:16.695Z,-7.72
2023-02-08T00:56:25.985Z,-7.70
2023-02-08T00:59:28.770Z,-7.69
2023-02-08T01:02:35.092Z,-7.70
2023-02-08T01:05:42.458Z,-7.71
2023-02-08T01:08:47.701Z,-7.75
2023-02-08T01:11:55.923Z,-7.84
2023-02-08T01:14:59.283Z,-7.88
2023-02-08T01:18:03.836Z,-7.93
2023-02-08T01:21:09.085Z,-7.95
2023-02-08T01:24:14.153Z,-7.99
2023-02-08T01:27:21.411Z,-8.05
2023-02-08T01:30:25.766Z,-8.09
2023-02-08T01:33:29.546Z,-8.10
2023-02-08T01:36:37.510Z,-8.08
2023-02-08T01:39:42.689Z,-8.10
2023-02-08T01:42:48.098Z,-8.12
2023-02-08T01:45:50.916Z,-8.15
2023-02-08T01:49:01.843Z,-8.19
2023-02-08T01:52:33.816Z,-8.26
2023-02-08T01:55:45.531Z,-8.32
2023-02-08T01:58:57.578Z,-8.37
2023-02-08T02:02:07.004Z,-8.41
2023-02-08T02:05:13.885Z,-8.45
2023-02-08T02:08:19.586Z,-8.48
2023-02-08T02:11:24.220Z,-8.52
2023-02-08T02:14:51.825Z,-8.56
2023-02-08T02:17:57.438Z,-8.57
2023-02-08T02:21:45.646Z,-8.59
2023-02-08T02:24:56.978Z,-8.65
2023-02-08T02:28:37.907Z,-8.71
2023-02-08T02:31:49.699Z,-8.74
2023-02-08T02:35:09.332Z,-8.74
2023-02-08T02:38:36.857Z,-8.74
2023-02-08T02:42:29.421Z,-8.76
2023-02-08T02:46:05.212Z,-8.78
2023-02-08T02:49:23.608Z,-8.79
2023-02-08T02:52:42.335Z,-8.79
2023-02-08T02:55:52.327Z,-8.79
2023-02-08T02:59:16.446Z,-8.80
2023-02-08T03:02:29.199Z,-8.79
2023-02-08T03:05:31.572Z,-8.80
2023-02-08T03:08:51.524Z,-8.83
2023-02-08T03:12:12.251Z,-8.85
2023-02-08T03:15:39.826Z,-8.85
2023-02-08T03:19:03.817Z,-8.86
2023-02-08T03:22:53.884Z,-8.87
2023-02-08T03:26:25.846Z,-8.92
2023-02-08T03:29:57.231Z,-8.98
2023-02-08T03:33:40.555Z,-9.01
2023-02-08T03:37:22.345Z,-9.03
2023-02-08T03:40:51.036Z,-9.05
2023-02-08T03:44:39.290Z,-9.03
2023-02-08T03:47:49.050Z,-9.01
2023-02-08T03:51:02.471Z,-9.01
2023-02-08T03:54:17.402Z,-9.01
2023-02-08T03:57:31.492Z,-9.02
2023-02-08T04:00:41.718Z,-9.02
2023-02-08T04:03:49.657Z,-9.03
2023-02-08T04:06:57.852Z,-9.00
2023-02-08T04:10:07.450Z,-9.01
2023-02-08T04:13:19.412Z,-9.02
2023-02-08T04:17:01.858Z,-9.06
2023-02-08T04:20:17.399Z,-9.11
2023-02-08T04:23:32.620Z,-9.14
2023-02-08T04:26:41.903Z,-9.16
2023-02-08T04:29:51.403Z,-9.18
2023-02-08T04:33:07.709Z,-9.19
2023-02-08T04:36:25.634Z,-9.20
2023-02-08T04:39:38.273Z,-9.22
2023-02-08T04:42:43.473Z,-9.22
2023-02-08T04:45:51.690Z,-9.19
2023-02-08T04:49:03.032Z,-9.17
2023-02-08T04:52:25.699Z,-9.21
2023-02-08T04:55:38.642Z,-9.25
2023-02-08T04:58:49.408Z,-9.30
2023-02-08T05:02:01.550Z,-9.36
2023-02-08T05:05:10.761Z,-9.41
2023-02-08T05:08:20.534Z,-9.43
2023-02-08T05:11:44.269Z,-9.44
2023-02-08T05:14:57.292Z,-9.43
2023-02-08T05:18:10.418Z,-9.44
2023-02-08T05:21:16.788Z,-9.46
2023-02-08T05:24:29.610Z,-9.43
2023-02-08T05:27:44.474Z,-9.40
2023-02-08T05:31:30.757Z,-9.38
2023-02-08T05:34:48.876Z,-9.36
2023-02-08T05:37:58.066Z,-9.40
2023-02-08T05:41:35.745Z,-9.44
2023-02-08T05:45:04.757Z,-9.47
2023-02-08T05:48:25.374Z,-9.48
2023-02-08T05:51:37.675Z,-9.48
2023-02-08T05:54:54.249Z,-9.46
2023-02-08T05:58:05.965Z,-9.44
2023-02-08T06:01:39.029Z,-9.37
2023-02-08T06:04:57.863Z,-9.30
2023-02-08T06:08:14.115Z,-9.25
2023-02-08T06:11:31.465Z,-9.15
2023-02-08T06:14:46.099Z,-9.09
2023-02-08T06:18:02.933Z,-9.04
2023-02-08T06:21:34.496Z,-8.99
2023-02-08T06:24:41.516Z,-8.90
2023-02-08T06:27:57.501Z,-8.83
2023-02-08T06:31:01.239Z,-8.77
2023-02-08T06:34:06.147Z,-8.69
2023-02-08T06:37:12.273Z,-8.61
2023-02-08T07:36:23.726Z,-8.44
2023-02-08T07:39:32.158Z,-8.28
2023-02-08T07:42:41.421Z,-8.16
2023-02-08T07:45:53.935Z,-7.99
2023-02-08T07:48:58.812Z,-7.80
2023-02-08T07:52:04.301Z,-7.63
2023-02-08T07:55:10.135Z,-7.53
2023-02-08T07:58:23.194Z,-7.41
2023-02-08T08:01:30.789Z,-7.28
2023-02-08T08:04:36.109Z,-7.19
2023-02-08T08:07:43.323Z,-7.04
2023-02-08T08:10:52.502Z,-6.89
2023-02-08T08:13:59.222Z,-6.77
2023-02-08T08:17:07.531Z,-6.63
2023-02-08T08:20:13.413Z,-6.51
2023-02-08T08:23:17.149Z,-6.36
2023-02-08T08:26:25.078Z,-6.24
2023-02-08T08:29:32.964Z,-6.17
2023-02-08T08:32:40.334Z,-6.07
2023-02-08T08:35:47.397Z,-5.95
2023-02-08T08:38:54.686Z,-5.78
2023-02-08T08:41:59.582Z,-5.62
2023-02-08T08:45:04.666Z,-5.47
2023-02-08T08:48:11.158Z,-5.31
2023-02-08T08:51:16.818Z,-5.14
2023-02-08T08:54:21.827Z,-5.07
2023-02-08T08:57:26.992Z,-4.97
2023-02-08T09:00:31.797Z,-4.75
2023-02-08T09:03:41.457Z,-4.60
2023-02-08T09:06:45.631Z,-4.46
2023-02-08T09:09:51.180Z,-4.34
2023-02-08T09:12:59.759Z,-4.15
2023-02-08T09:16:12.372Z,-3.99
2023-02-08T09:19:20.240Z,-3.88
2023-02-08T09:22:37.254Z,-3.73
2023-02-08T09:25:50.222Z,-3.60
2023-02-08T09:28:55.888Z,-3.50
2023-02-08T09:32:04.181Z,-3.44
2023-02-08T09:35:13.895Z,-3.54
2023-02-08T09:38:19.959Z,-3.72
2023-02-08T09:42:01.862Z,-3.81
2023-02-08T09:45:31.948Z,-3.92
2023-02-08T09:48:39.281Z,-3.91
2023-02-08T09:52:02.875Z,-3.77
2023-02-08T09:55:39.484Z,-3.64
2023-02-08T09:58:55.378Z,-3.53
2023-02-08T10:02:26.489Z,-3.48
2023-02-08T10:05:36.160Z,-3.31
2023-02-08T10:08:48.691Z,-3.14
2023-02-08T10:12:28.105Z,-2.96
2023-02-08T10:15:48.885Z,-2.69
2023-02-08T10:19:25.776Z,-2.59
2023-02-08T10:22:35.331Z,-2.63
2023-02-08T10:25:56.899Z,-2.72
2023-02-08T10:29:27.596Z,-2.79
2023-02-08T10:33:37.843Z,-2.87
2023-02-08T10:36:45.338Z,-2.89
2023-02-08T10:39:51.106Z,-2.90
2023-02-08T10:43:35.939Z,-2.87
2023-02-08T10:46:55.448Z,-2.79
2023-02-08T10:50:24.194Z,-2.75
2023-02-08T10:53:32.589Z,-2.68
2023-02-08T10:56:48.819Z,-2.62
2023-02-08T11:00:03.924Z,-2.53
2023-02-08T11:04:00.278Z,-2.37
2023-02-08T11:07:23.118Z,-2.02
2023-02-08T11:10:29.266Z,-1.62
2023-02-08T11:13:38.156Z,-1.20
2023-02-08T11:16:44.872Z,-0.71
2023-02-08T11:19:54.938Z,-0.44
2023-02-08T11:23:00.321Z,-0.28
2023-02-08T11:26:42.751Z,-0.14
2023-02-08T11:29:49.130Z,0.23
2023-02-08T11:33:20.284Z,0.40
2023-02-08T11:36:24.548Z,0.66
2023-02-08T11:40:06.330Z,0.73
2023-02-08T11:43:32.870Z,0.72
2023-02-08T11:46:42.872Z,0.73
2023-02-08T11:49:56.693Z,0.65
2023-02-08T11:53:36.877Z,0.69
2023-02-08T11:56:43.398Z,1.02
2023-02-08T11:59:51.305Z,1.48
2023-02-08T12:03:19.050Z,1.82
2023-02-08T12:06:44.717Z,2.18
2023-02-08T12:10:14.078Z,2.49
2023-02-08T12:13:46.912Z,2.92
2023-02-08T12:17:32.083Z,3.09
2023-02-08T12:20:47.895Z,2.93
2023-02-08T12:24:00.676Z,2.96
2023-02-08T12:27:10.762Z,2.94
2023-02-08T12:30:37.309Z,2.91
2023-02-08T12:34:01.654Z,2.89
2023-02-08T12:37:49.366Z,2.93
2023-02-08T12:41:10.393Z,3.26
2023-02-08T12:44:19.477Z,3.95
2023-02-08T12:48:09.040Z,4.54
2023-02-08T12:51:59.771Z,5.05
2023-02-08T12:55:19.101Z,5.20
2023-02-08T12:58:30.655Z,4.95
2023-02-08T13:01:51.729Z,5.05
2023-02-08T13:05:02.584Z,5.30
2023-02-08T13:08:13.964Z,5.38
2023-02-08T13:11:49.692Z,5.13
2023-02-08T13:15:29.621Z,5.05
2023-02-08T13:18:58.957Z,5.20
2023-02-08T13:22:07.613Z,5.62
2023-02-08T13:25:31.584Z,6.25
2023-02-08T13:28:36.360Z,6.56
2023-02-08T13:31:49.678Z,6.76
2023-02-08T13:35:20.455Z,6.81
2023-02-08T13:38:35.767Z,6.73
2023-02-08T13:41:54.446Z,6.96
2023-02-08T13:45:03.379Z,7.40
2023-02-08T13:48:12.879Z,7.55
2023-02-08T13:51:53.914Z,7.30
2023-02-08T13:55:34.454Z,6.76
2023-02-08T13:59:01.664Z,6.82
2023-02-08T14:02:27.265Z,7.16
2023-02-08T14:06:12.860Z,7.20
2023-02-08T14:09:25.306Z,7.21
2023-02-08T14:12:48.597Z,6.99
2023-02-08T14:16:27.564Z,6.78
2023-02-08T14:19:43.579Z,6.21
2023-02-08T14:23:05.903Z,5.81
2023-02-08T14:26:24.356Z,5.33
2023-02-08T14:29:33.815Z,4.72
2023-02-08T14:32:40.671Z,4.02
2023-02-08T14:35:55.776Z,3.40
2023-02-08T14:39:29.348Z,3.02
2023-02-08T14:42:53.959Z,2.89
2023-02-08T14:46:42.182Z,2.66
2023-02-08T14:49:51.388Z,2.21
2023-02-08T14:53:27.900Z,1.87
2023-02-08T14:56:53.929Z,1.47
2023-02-08T15:00:07.271Z,0.99
2023-02-08T15:03:15.693Z,0.41
2023-02-08T15:07:22.347Z,-0.21
2023-02-08T15:10:32.322Z,-1.04
2023-02-08T15:14:01.153Z,-1.57
2023-02-08T15:17:15.723Z,-1.94
2023-02-08T15:20:25.766Z,-2.27
2023-02-08T15:23:31.823Z,-2.57
2023-02-08T15:26:53.617Z,-2.81
2023-02-08T15:29:57.801Z,-3.02
2023-02-08T15:33:13.363Z,-3.18
2023-02-08T15:36:23.751Z,-3.33
2023-02-08T15:39:41.636Z,-3.47
2023-02-08T15:42:52.728Z,-3.59
2023-02-08T15:46:01.085Z,-3.71
2023-02-08T15:49:14.637Z,-3.83
2023-02-08T15:52:27.282Z,-3.96
2023-02-08T15:55:44.886Z,-4.05
2023-02-08T15:58:54.865Z,-4.15
2023-02-08T16:02:23.764Z,-4.20
2023-02-08T16:05:34.261Z,-4.23
2023-02-08T16:08:46.621Z,-4.25
2023-02-08T16:11:53.603Z,-4.30
2023-02-08T16:15:02.231Z,-4.36
2023-02-08T16:19:07.595Z,-4.42
2023-02-08T16:22:37.519Z,-4.53
2023-02-08T16:30:04.031Z,-4.67
2023-02-08T16:33:45.421Z,-4.74
2023-02-08T16:46:45.154Z,-4.92
2023-02-08T16:50:04.445Z,-4.97
2023-02-08T16:53:41.485Z,-5.00
2023-02-08T16:57:11.507Z,-5.03
2023-02-08T17:01:04.067Z,-5.05
2023-02-08T17:04:13.634Z,-5.09
2023-02-08T17:13:03.862Z,-5.18
2023-02-08T17:16:27.498Z,-5.23
2023-02-08T17:19:38.985Z,-5.27
2023-02-08T17:22:53.124Z,-5.31
2023-02-08T17:26:15.257Z,-5.36
2023-02-08T17:29:31.419Z,-5.41
2023-02-08T17:32:45.881Z,-5.43
2023-02-08T17:35:56.079Z,-5.42
2023-02-08T17:39:01.605Z,-5.40
2023-02-08T17:42:13.976Z,-5.37
2023-02-08T17:45:27.840Z,-5.34
2023-02-08T17:48:37.999Z,-5.31
2023-02-08T17:51:49.075Z,-5.28
2023-02-08T17:55:11.531Z,-5.24
2023-02-08T17:58:19.640Z,-5.16
2023-02-08T18:01:31.996Z,-5.07
2023-02-08T18:04:39.837Z,-5.01
2023-02-08T18:07:51.422Z,-4.98
2023-02-08T18:11:05.272Z,-4.99
2023-02-08T18:14:13.292Z,-4.99
2023-02-08T18:17:21.021Z,-4.98
2023-02-08T18:20:36.244Z,-5.01
2023-02-08T18:23:55.975Z,-4.99
2023-02-08T18:27:02.532Z,-4.96
2023-02-08T18:30:14.208Z,-4.96
2023-02-08T18:33:26.782Z,-4.95
2023-02-08T18:36:36.022Z,-4.93
2023-02-08T18:39:47.677Z,-4.91
2023-02-08T18:42:57.732Z,-4.86
2023-02-08T18:46:07.264Z,-4.86
2023-02-08T18:49:17.121Z,-4.87
2023-02-08T18:52:23.947Z,-4.92
2023-02-08T18:55:34.261Z,-4.97
2023-02-08T18:58:40.800Z,-5.00
2023-02-08T19:01:57.334Z,-5.03
2023-02-08T19:05:15.762Z,-5.07
2023-02-08T19:08:30.144Z,-5.10
2023-02-08T19:11:40.473Z,-5.11
2023-02-08T19:14:55.593Z,-5.15
2023-02-08T19:18:00.022Z,-5.18
2023-02-08T19:21:26.046Z,-5.19
2023-02-08T19:24:35.204Z,-5.18
2023-02-08T19:27:46.014Z,-5.18
2023-02-08T19:30:51.044Z,-5.18
2023-02-08T19:34:00.473Z,-5.19
2023-02-08T19:37:07.977Z,-5.22
2023-02-08T19:40:18.359Z,-5.26
2023-02-08T19:43:27.050Z,-5.27
2023-02-08T19:46:53.219Z,-5.27
2023-02-08T19:50:04.380Z,-5.30
2023-02-08T19:53:11.149Z,-5.32
2023-02-08T19:56:21.436Z,-5.33
2023-02-08T19:59:35.455Z,-5.36
2023-02-08T20:02:45.222Z,-5.35
2023-02-08T20:05:59.810Z,-5.34
2023-02-08T20:09:05.471Z,-5.36
2023-02-08T20:12:14.404Z,-5.40
2023-02-08T20:15:21.580Z,-5.39
2023-02-08T20:18:28.831Z,-5.45
2023-02-08T20:21:44.577Z,-5.51
2023-02-08T20:24:56.146Z,-5.55
2023-02-08T20:28:06.244Z,-5.60
2023-02-08T20:31:17.884Z,-5.64
2023-02-08T20:34:59.771Z,-5.66
2023-02-08T20:38:15.725Z,-5.69
2023-02-08T20:41:23.206Z,-5.72
2023-02-08T20:44:29.085Z,-5.75
2023-02-08T20:58:58.005Z,-6.04
2023-02-08T21:02:04.676Z,-6.22
2023-02-08T21:05:09.118Z,-6.33
2023-02-08T21:08:12.881Z,-6.43
2023-02-08T21:11:14.981Z,-6.52
2023-02-08T21:14:20.865Z,-6.62
2023-02-08T21:17:24.031Z,-6.73
2023-02-08T21:20:33.887Z,-6.81
2023-02-08T21:23:43.246Z,-6.91
2023-02-08T21:26:52.026Z,-7.00
2023-02-08T21:29:58.970Z,-7.05
2023-02-08T21:33:02.070Z,-7.04
2023-02-08T21:36:10.122Z,-7.01
2023-02-08T21:39:17.573Z,-6.98
2023-02-08T21:42:23.627Z,-6.95
2023-02-08T21:45:28.225Z,-6.91
2023-02-08T21:48:55.156Z,-6.86
2023-02-08T21:52:22.787Z,-6.83
2023-02-08T21:55:33.780Z,-6.82
2023-02-08T21:58:44.476Z,-6.84
2023-02-08T22:01:48.988Z,-6.87
2023-02-08T22:04:54.443Z,-6.90
2023-02-08T22:08:00.821Z,-6.94
2023-02-08T22:11:16.124Z,-6.97
2023-02-08T22:14:19.924Z,-7.02
2023-02-08T22:17:26.996Z,-7.07
2023-02-08T22:20:30.327Z,-7.09
2023-02-08T22:23:32.705Z,-7.12
2023-02-08T22:26:39.028Z,-7.14
2023-02-08T22:29:43.078Z,-7.17
2023-02-08T22:32:48.557Z,-7.18
2023-02-08T22:35:56.301Z,-7.20
2023-02-08T22:39:00.246Z,-7.24
2023-02-08T22:42:08.379Z,-7.27
2023-02-08T22:45:13.000Z,-7.30
2023-02-08T22:48:15.585Z,-7.33
2023-02-08T22:51:23.138Z,-7.36
2023-02-08T22:54:26.642Z,-7.37
2023-02-08T22:57:31.688Z,-7.38
2023-02-08T23:00:36.912Z,-7.39
2023-02-08T23:03:41.281Z,-7.40
2023-02-08T23:06:43.923Z,-7.39
2023-02-08T23:09:47.767Z,-7.38
2023-02-08T23:12:51.728Z,-7.40
2023-02-08T23:15:56.559Z,-7.43
2023-02-08T23:19:00.082Z,-7.45
2023-02-08T23:22:03.358Z,-7.47
